createdAt,value
2022-10-09T00:01:13.988Z,16.45
2022-10-09T00:03:43.614Z,15.20
2022-10-09T00:06:14.947Z,13.80
2022-10-09T00:08:43.867Z,17.92
2022-10-09T00:11:13.974Z,13.18
2022-10-09T00:13:43.360Z,13.25
2022-10-09T00:16:14.466Z,17.50
2022-10-09T00:18:43.213Z,18.73
2022-10-09T00:21:19.060Z,16.80
2022-10-09T00:23:46.813Z,12.00
2022-10-09T00:26:14.554Z,10.80
2022-10-09T00:28:43.714Z,18.52
2022-10-09T00:31:12.758Z,17.27
2022-10-09T00:33:40.796Z,16.10
2022-10-09T00:36:10.811Z,14.82
2022-10-09T00:38:38.583Z,17.92
2022-10-09T00:41:06.667Z,14.27
2022-10-09T00:43:41.710Z,16.77
2022-10-09T00:46:19.976Z,17.55
2022-10-09T00:49:01.300Z,15.13
2022-10-09T00:51:30.758Z,19.20
2022-10-09T00:53:59.714Z,14.20
2022-10-09T00:56:27.775Z,18.42
2022-10-09T00:58:58.639Z,12.43
2022-10-09T01:01:27.849Z,17.02
2022-10-09T01:03:55.511Z,16.75
2022-10-09T01:06:31.478Z,23.48
2022-10-09T01:09:04.972Z,19.10
2022-10-09T01:11:40.566Z,24.50
2022-10-09T01:14:19.403Z,22.00
2022-10-09T01:16:57.817Z,20.58
2022-10-09T01:19:41.990Z,21.55
2022-10-09T01:22:20.906Z,22.95
2022-10-09T01:24:56.157Z,16.38
2022-10-09T01:27:27.163Z,19.25
2022-10-09T01:29:57.712Z,18.42
2022-10-09T01:32:30.632Z,16.05
2022-10-09T01:34:59.703Z,14.77
2022-10-09T01:37:29.647Z,17.23
2022-10-09T01:39:58.348Z,13.65
2022-10-09T01:42:29.734Z,13.82
2022-10-09T01:44:57.428Z,16.92
2022-10-09T01:47:25.495Z,14.05
2022-10-09T01:49:59.206Z,13.30
2022-10-09T01:52:46.313Z,15.30
2022-10-09T01:55:26.680Z,14.57
2022-10-09T01:58:01.327Z,13.65
2022-10-09T02:00:34.098Z,13.15
2022-10-09T02:03:03.635Z,13.90
2022-10-09T02:05:32.919Z,14.45
2022-10-09T02:08:01.034Z,11.55
2022-10-09T02:10:29.047Z,13.80
2022-10-09T02:13:00.645Z,12.30
2022-10-09T02:15:33.805Z,12.77
2022-10-09T02:18:06.180Z,13.38
2022-10-09T02:20:37.014Z,13.38
2022-10-09T02:23:08.511Z,14.20
2022-10-09T02:25:36.812Z,12.40
2022-10-09T02:28:08.024Z,15.88
2022-10-09T02:30:45.362Z,11.57
2022-10-09T02:33:13.043Z,17.45
2022-10-09T02:35:41.102Z,15.30
2022-10-09T02:38:08.691Z,14.52
2022-10-09T02:40:36.286Z,12.25
2022-10-09T02:43:03.972Z,16.13
2022-10-09T02:45:32.998Z,14.20
2022-10-09T02:48:00.625Z,15.18
2022-10-09T02:50:30.856Z,17.55
2022-10-09T02:52:58.486Z,16.95
2022-10-09T02:55:26.167Z,15.43
2022-10-09T02:57:53.766Z,17.50
2022-10-09T03:00:21.816Z,14.55
2022-10-09T03:02:51.299Z,16.73
2022-10-09T03:05:19.328Z,12.13
2022-10-09T03:07:51.360Z,17.80
2022-10-09T03:10:19.867Z,15.07
2022-10-09T03:12:48.485Z,12.23
2022-10-09T03:15:16.438Z,16.30
2022-10-09T03:17:44.146Z,11.77
2022-10-09T03:20:13.175Z,13.35
2022-10-09T03:22:40.887Z,18.52
2022-10-09T03:25:09.116Z,15.45
2022-10-09T03:27:36.803Z,9.98
2022-10-09T03:30:05.181Z,15.15
2022-10-09T03:32:33.109Z,13.85
2022-10-09T03:35:00.796Z,15.60
2022-10-09T03:37:29.875Z,13.52
2022-10-09T03:39:57.515Z,16.05
2022-10-09T03:42:25.465Z,15.52
2022-10-09T03:44:53.118Z,16.05
2022-10-09T03:47:20.842Z,15.43
2022-10-09T03:49:48.625Z,9.57
2022-10-09T03:52:16.266Z,14.73
2022-10-09T03:54:45.403Z,11.45
2022-10-09T03:57:13.217Z,14.27
2022-10-09T03:59:40.897Z,9.40
2022-10-09T04:02:08.644Z,9.73
2022-10-09T04:04:36.324Z,10.50
2022-10-09T04:07:04.039Z,11.65
2022-10-09T04:09:31.704Z,9.75
2022-10-09T04:12:00.760Z,8.70
2022-10-09T04:14:28.397Z,12.57
2022-10-09T04:16:56.063Z,15.00
2022-10-09T04:19:23.703Z,14.63
2022-10-09T04:21:51.416Z,9.98
2022-10-09T04:24:19.250Z,13.55
2022-10-09T04:26:46.892Z,12.65
2022-10-09T04:29:16.190Z,13.70
2022-10-09T04:31:43.890Z,17.23
2022-10-09T04:34:11.603Z,19.63
2022-10-09T04:36:39.254Z,14.57
2022-10-09T04:39:07.113Z,11.27
2022-10-09T04:41:38.096Z,14.07
2022-10-09T04:44:06.896Z,9.32
2022-10-09T04:46:35.949Z,10.15
2022-10-09T04:49:03.691Z,10.98
2022-10-09T04:51:31.684Z,14.32
2022-10-09T04:54:00.740Z,15.00
2022-10-09T04:56:28.831Z,11.75
2022-10-09T04:58:56.509Z,16.25
2022-10-09T05:01:26.721Z,13.07
2022-10-09T05:03:56.723Z,11.07
2022-10-09T05:06:25.282Z,13.85
2022-10-09T05:08:54.110Z,14.30
2022-10-09T05:11:23.546Z,15.27
2022-10-09T05:13:53.700Z,13.30
2022-10-09T05:16:23.180Z,12.77
2022-10-09T05:18:53.895Z,18.00
2022-10-09T05:21:23.755Z,13.25
2022-10-09T05:23:52.057Z,13.13
2022-10-09T05:26:22.145Z,18.23
2022-10-09T05:28:50.248Z,17.10
2022-10-09T05:31:21.152Z,17.08
2022-10-09T05:33:49.437Z,12.75
2022-10-09T05:36:18.026Z,15.23
2022-10-09T05:38:47.247Z,14.77
2022-10-09T05:41:16.654Z,13.02
2022-10-09T05:43:46.176Z,14.48
2022-10-09T05:46:15.252Z,14.77
2022-10-09T05:48:45.486Z,13.00
2022-10-09T05:51:14.620Z,11.55
2022-10-09T05:53:43.535Z,10.57
2022-10-09T05:56:14.987Z,13.43
2022-10-09T05:58:43.450Z,13.40
2022-10-09T06:01:11.748Z,12.20
2022-10-09T06:03:39.692Z,12.55
2022-10-09T06:06:09.425Z,12.40
2022-10-09T06:08:38.191Z,12.68
2022-10-09T06:11:10.705Z,12.65
2022-10-09T06:16:07.883Z,8.77
2022-10-09T06:18:35.634Z,10.32
2022-10-09T06:21:03.644Z,14.30
2022-10-09T06:23:32.095Z,13.43
2022-10-09T06:26:01.656Z,13.73
2022-10-09T06:28:29.560Z,12.85
2022-10-09T06:31:03.674Z,11.88
2022-10-09T06:33:33.121Z,10.65
2022-10-09T06:36:09.768Z,12.95
2022-10-09T06:38:38.677Z,11.18
2022-10-09T06:41:08.438Z,12.63
2022-10-09T06:43:36.435Z,11.95
2022-10-09T06:46:07.257Z,11.85
2022-10-09T06:48:36.640Z,16.15
2022-10-09T06:51:06.632Z,17.00
2022-10-09T06:53:35.512Z,10.55
2022-10-09T06:56:03.230Z,12.25
2022-10-09T06:58:34.119Z,16.17
2022-10-09T07:01:08.371Z,16.88
2022-10-09T07:03:36.626Z,14.40
2022-10-09T07:06:09.143Z,13.68
2022-10-09T07:11:12.485Z,15.70
2022-10-09T07:13:43.121Z,17.63
2022-10-09T07:16:12.559Z,16.42
2022-10-09T07:18:40.786Z,15.77
2022-10-09T07:21:10.108Z,16.67
2022-10-09T07:23:38.132Z,16.88
2022-10-09T07:26:12.094Z,21.10
2022-10-09T07:28:42.491Z,15.60
2022-10-09T07:31:12.804Z,13.38
2022-10-09T07:33:41.754Z,14.45
2022-10-09T07:36:10.850Z,16.70
2022-10-09T07:38:39.006Z,14.18
2022-10-09T07:41:08.641Z,11.57
2022-10-09T07:43:37.108Z,16.80
2022-10-09T07:46:07.012Z,41.53
2022-10-09T07:48:36.869Z,17.95
2022-10-09T07:51:09.605Z,14.93
2022-10-09T07:53:37.348Z,13.32
2022-10-09T07:56:05.838Z,14.65
2022-10-09T07:58:33.915Z,14.77
2022-10-09T08:01:06.003Z,12.18
2022-10-09T08:03:34.351Z,13.35
2022-10-09T08:06:03.616Z,13.93
2022-10-09T08:08:31.593Z,13.65
2022-10-09T08:10:59.318Z,15.85
2022-10-09T08:13:27.052Z,33.95
2022-10-09T08:15:54.787Z,14.00
2022-10-09T08:18:22.476Z,14.40
2022-10-09T08:20:58.582Z,11.55
2022-10-09T08:23:28.022Z,12.70
2022-10-09T08:25:56.134Z,14.50
2022-10-09T08:28:24.085Z,14.75
2022-10-09T08:30:52.011Z,13.18
2022-10-09T08:33:22.040Z,13.32
2022-10-09T08:35:50.096Z,13.00
2022-10-09T08:38:37.661Z,12.23
2022-10-09T08:41:10.421Z,12.35
2022-10-09T08:43:41.962Z,11.68
2022-10-09T08:46:20.979Z,21.70
2022-10-09T08:48:51.318Z,12.57
2022-10-09T08:51:24.344Z,12.32
2022-10-09T08:54:31.724Z,9.70
2022-10-09T08:57:06.131Z,8.10
2022-10-09T08:59:34.275Z,9.98
2022-10-09T09:02:16.730Z,9.32
2022-10-09T09:05:04.936Z,9.02
2022-10-09T09:07:45.946Z,10.23
2022-10-09T09:10:25.303Z,6.22
2022-10-09T09:13:03.101Z,9.68
2022-10-09T09:15:47.275Z,8.20
2022-10-09T09:18:46.056Z,8.82
2022-10-09T09:21:44.555Z,7.07
2022-10-09T09:24:50.057Z,7.68
2022-10-09T09:27:22.204Z,7.70
2022-10-09T09:29:57.476Z,6.53
2022-10-09T09:32:28.838Z,7.80
2022-10-09T09:35:06.470Z,6.75
2022-10-09T09:37:34.362Z,6.75
2022-10-09T09:40:35.387Z,10.10
2022-10-09T09:42:57.103Z,7.97
2022-10-09T09:45:27.822Z,5.47
2022-10-09T09:47:58.871Z,6.38
2022-10-09T09:50:48.551Z,7.32
2022-10-09T09:53:28.525Z,8.43
2022-10-09T09:55:57.392Z,5.90
2022-10-09T09:58:33.205Z,6.05
2022-10-09T10:01:04.327Z,6.25
2022-10-09T10:03:36.083Z,6.93
2022-10-09T10:06:04.339Z,6.63
2022-10-09T10:08:47.161Z,8.13
2022-10-09T10:11:19.270Z,5.75
2022-10-09T10:13:49.656Z,9.82
2022-10-09T10:16:24.949Z,9.10
2022-10-09T10:18:56.931Z,4.32
2022-10-09T10:21:25.437Z,6.63
2022-10-09T10:23:58.859Z,6.00
2022-10-09T10:26:37.238Z,4.75
2022-10-09T10:29:23.012Z,5.22
2022-10-09T10:32:00.793Z,5.35
2022-10-09T10:34:33.089Z,5.55
2022-10-09T10:37:11.057Z,7.32
2022-10-09T10:39:44.883Z,7.40
2022-10-09T10:42:20.596Z,5.43
2022-10-09T10:44:53.620Z,3.40
2022-10-09T10:47:28.410Z,12.30
2022-10-09T10:49:56.659Z,9.77
2022-10-09T10:52:42.046Z,6.90
2022-10-09T10:55:26.808Z,16.15
2022-10-09T10:58:13.702Z,9.52
2022-10-09T11:00:50.607Z,5.15
2022-10-09T11:03:35.198Z,9.20
2022-10-09T11:06:09.561Z,19.80
2022-10-09T11:08:52.780Z,13.35
2022-10-09T11:11:24.448Z,5.35
2022-10-09T11:14:00.685Z,7.75
2022-10-09T11:16:48.570Z,8.65
2022-10-09T11:19:49.496Z,11.23
2022-10-09T11:22:33.984Z,8.15
2022-10-09T11:25:13.947Z,6.45
2022-10-09T11:27:50.194Z,4.05
2022-10-09T11:30:19.855Z,5.75
2022-10-09T11:32:56.143Z,25.08
2022-10-09T11:35:26.548Z,6.15
2022-10-09T11:38:08.073Z,7.47
2022-10-09T11:40:40.637Z,5.03
2022-10-09T11:43:28.561Z,16.27
2022-10-09T11:46:03.021Z,4.35
2022-10-09T11:48:38.800Z,7.60
2022-10-09T11:51:20.292Z,7.40
2022-10-09T11:53:55.937Z,3.90
2022-10-09T11:56:25.988Z,6.65
2022-10-09T11:58:58.590Z,5.03
2022-10-09T12:01:32.873Z,4.57
2022-10-09T12:04:07.802Z,4.22
2022-10-09T12:06:50.611Z,3.08
2022-10-09T12:09:25.970Z,3.20
2022-10-09T12:11:59.595Z,3.28
2022-10-09T12:14:33.372Z,3.67
2022-10-09T12:17:01.641Z,3.38
2022-10-09T12:19:36.165Z,4.45
2022-10-09T12:22:08.872Z,4.38
2022-10-09T12:24:46.652Z,3.75
2022-10-09T12:27:21.658Z,4.30
2022-10-09T12:29:56.989Z,3.95
2022-10-09T12:32:29.308Z,2.65
2022-10-09T12:34:58.222Z,4.03
2022-10-09T12:37:36.589Z,3.30
2022-10-09T12:40:09.901Z,3.38
2022-10-09T12:42:37.894Z,4.95
2022-10-09T12:45:06.492Z,5.63
2022-10-09T12:47:36.339Z,4.10
2022-10-09T12:50:33.671Z,5.75
2022-10-09T12:53:07.022Z,8.27
2022-10-09T12:55:49.097Z,5.95
2022-10-09T12:58:31.220Z,6.15
2022-10-09T13:01:12.896Z,8.20
2022-10-09T13:03:48.375Z,8.70
2022-10-09T13:06:25.463Z,19.27
2022-10-09T13:09:05.323Z,16.60
2022-10-09T13:11:42.816Z,23.65
2022-10-09T13:14:30.965Z,9.98
2022-10-09T13:17:02.697Z,48.45
2022-10-09T13:19:38.333Z,8.75
2022-10-09T13:22:21.862Z,10.20
2022-10-09T13:24:54.288Z,4.82
2022-10-09T13:29:50.633Z,4.47
2022-10-09T13:32:21.001Z,6.57
2022-10-09T13:34:50.167Z,4.85
2022-10-09T13:37:20.330Z,3.55
2022-10-09T13:39:48.744Z,4.93
2022-10-09T13:42:29.814Z,4.35
2022-10-09T13:45:00.314Z,4.80
2022-10-09T13:47:29.785Z,4.38
2022-10-09T13:50:01.988Z,10.02
2022-10-09T13:52:30.139Z,6.88
2022-10-09T13:54:58.110Z,4.88
2022-10-09T13:57:32.692Z,13.75
2022-10-09T14:00:00.544Z,6.85
2022-10-09T14:02:32.285Z,6.93
2022-10-09T14:05:02.822Z,6.50
2022-10-09T14:07:32.101Z,9.73
2022-10-09T14:10:03.647Z,4.63
2022-10-09T14:12:35.826Z,10.20
2022-10-09T14:15:05.001Z,7.60
2022-10-09T14:17:34.769Z,4.53
2022-10-09T14:20:06.101Z,4.05
2022-10-09T14:22:33.898Z,14.18
2022-10-09T14:25:01.672Z,4.72
2022-10-09T14:27:30.938Z,3.33
2022-10-09T14:30:02.611Z,5.78
2022-10-09T14:32:30.672Z,5.35
2022-10-09T14:34:58.598Z,4.93
2022-10-09T14:37:42.466Z,4.78
2022-10-09T14:40:11.496Z,4.90
2022-10-09T14:42:39.755Z,6.30
2022-10-09T14:45:10.564Z,2.50
2022-10-09T14:47:38.380Z,3.08
2022-10-09T14:50:06.919Z,3.20
2022-10-09T14:52:34.769Z,3.40
2022-10-09T14:55:02.745Z,3.83
2022-10-09T14:57:35.152Z,7.13
2022-10-09T15:00:05.005Z,5.18
2022-10-09T15:02:34.328Z,3.70
2022-10-09T15:05:02.226Z,3.03
2022-10-09T15:07:31.504Z,2.95
2022-10-09T15:09:59.472Z,2.13
2022-10-09T15:12:27.216Z,2.97
2022-10-09T15:14:55.010Z,3.88
2022-10-09T15:17:22.709Z,3.30
2022-10-09T15:19:55.370Z,3.08
2022-10-09T15:22:23.320Z,3.45
2022-10-09T15:24:58.227Z,3.63
2022-10-09T15:27:26.200Z,2.40
2022-10-09T15:29:54.236Z,3.78
2022-10-09T15:32:22.127Z,4.13
2022-10-09T15:34:51.294Z,4.25
2022-10-09T15:37:19.097Z,3.42
2022-10-09T15:39:46.929Z,3.53
2022-10-09T15:42:14.723Z,5.43
2022-10-09T15:44:49.680Z,2.50
2022-10-09T15:47:27.169Z,3.70
2022-10-09T15:50:14.823Z,4.63
2022-10-09T15:52:42.542Z,3.53
2022-10-09T15:55:10.469Z,2.72
2022-10-09T15:57:38.200Z,2.53
2022-10-09T16:00:07.235Z,4.40
2022-10-09T16:02:34.954Z,14.90
2022-10-09T16:05:02.770Z,24.95
2022-10-09T16:07:32.052Z,4.88
2022-10-09T16:09:59.956Z,5.50
2022-10-09T16:12:27.890Z,5.35
2022-10-09T16:14:55.737Z,4.30
2022-10-09T16:17:28.701Z,3.53
2022-10-09T16:19:59.082Z,3.60
2022-10-09T16:22:27.115Z,6.70
2022-10-09T16:24:56.299Z,7.63
2022-10-09T16:27:24.016Z,5.97
2022-10-09T16:29:52.195Z,10.52
2022-10-09T16:32:23.379Z,6.22
2022-10-09T16:34:57.122Z,12.80
2022-10-09T16:37:29.603Z,6.85
2022-10-09T16:42:33.899Z,16.45
2022-10-09T16:45:04.545Z,14.30
2022-10-09T16:47:37.360Z,7.72
2022-10-09T16:50:49.318Z,6.00
2022-10-09T16:53:23.984Z,16.25
2022-10-09T16:55:54.973Z,8.60
2022-10-09T16:58:27.128Z,14.63
2022-10-09T17:01:03.942Z,11.30
2022-10-09T17:03:35.603Z,4.55
2022-10-09T17:06:08.287Z,7.28
2022-10-09T17:08:36.001Z,8.77
2022-10-09T17:11:07.271Z,3.83
2022-10-09T17:13:35.161Z,6.30
2022-10-09T17:16:13.280Z,6.75
2022-10-09T17:18:45.990Z,5.03
2022-10-09T17:21:14.470Z,4.18
2022-10-09T17:23:42.515Z,4.43
2022-10-09T17:26:18.516Z,5.13
2022-10-09T17:28:49.504Z,4.22
2022-10-09T17:31:19.475Z,3.90
2022-10-09T17:33:49.509Z,4.72
2022-10-09T17:36:20.331Z,3.55
2022-10-09T17:38:49.967Z,5.38
2022-10-09T17:41:21.339Z,4.40
2022-10-09T17:43:49.183Z,11.07
2022-10-09T17:46:22.975Z,7.13
2022-10-09T17:48:54.664Z,6.15
2022-10-09T17:51:26.967Z,7.65
2022-10-09T17:54:03.315Z,44.63
2022-10-09T17:56:34.858Z,53.78
2022-10-09T17:59:03.753Z,40.70
2022-10-09T18:01:32.400Z,20.85
2022-10-09T18:04:00.727Z,25.48
2022-10-09T18:06:34.055Z,11.45
2022-10-09T18:09:40.390Z,9.68
2022-10-09T18:12:09.683Z,11.88
2022-10-09T18:14:40.670Z,9.13
2022-10-09T18:17:16.114Z,10.98
2022-10-09T18:19:48.988Z,10.40
2022-10-09T18:22:16.861Z,10.55
2022-10-09T18:24:44.879Z,9.88
2022-10-09T18:27:14.003Z,12.43
2022-10-09T18:29:41.829Z,19.17
2022-10-09T18:32:14.006Z,16.20
2022-10-09T18:34:46.227Z,21.58
2022-10-09T18:39:43.083Z,11.30
2022-10-09T18:42:10.765Z,10.10
2022-10-09T18:44:41.606Z,10.48
2022-10-09T18:47:14.443Z,9.38
2022-10-09T18:49:45.355Z,9.00
2022-10-09T18:52:14.164Z,8.15
2022-10-09T18:54:43.457Z,8.57
2022-10-09T18:57:11.455Z,6.93
2022-10-09T18:59:41.129Z,8.35
2022-10-09T19:02:09.934Z,7.93
2022-10-09T19:04:37.710Z,8.00
2022-10-09T19:07:10.272Z,6.55
2022-10-09T19:12:12.998Z,6.03
2022-10-09T19:14:42.127Z,7.45
2022-10-09T19:17:10.033Z,6.82
2022-10-09T19:19:37.941Z,7.53
2022-10-09T19:22:06.047Z,9.73
2022-10-09T19:24:34.480Z,11.02
2022-10-09T19:27:03.455Z,17.60
2022-10-09T19:29:31.303Z,10.50
2022-10-09T19:32:00.422Z,11.05
2022-10-09T19:34:28.520Z,11.00
2022-10-09T19:36:56.290Z,7.65
2022-10-09T19:39:24.151Z,8.43
2022-10-09T19:41:52.168Z,40.40
2022-10-09T19:44:21.064Z,31.15
2022-10-09T19:46:48.925Z,19.85
2022-10-09T19:49:18.106Z,10.30
2022-10-09T19:51:46.415Z,8.70
2022-10-09T19:54:14.366Z,10.50
2022-10-09T19:56:42.097Z,8.13
2022-10-09T19:59:10.212Z,8.95
2022-10-09T20:01:40.327Z,7.88
2022-10-09T20:04:11.588Z,9.57
2022-10-09T20:06:42.412Z,7.65
2022-10-09T20:09:11.923Z,7.80
2022-10-09T20:11:39.736Z,8.30
2022-10-09T20:14:07.718Z,5.63
2022-10-09T20:16:35.575Z,9.38
2022-10-09T20:19:04.161Z,7.53
2022-10-09T20:21:33.537Z,6.45
2022-10-09T20:24:02.855Z,7.75
2022-10-09T20:26:33.188Z,6.85
2022-10-09T20:29:02.141Z,8.52
2022-10-09T20:31:30.456Z,9.30
2022-10-09T20:33:59.520Z,8.88
2022-10-09T20:36:29.944Z,7.82
2022-10-09T20:38:58.865Z,7.97
2022-10-09T20:41:29.149Z,9.10
2022-10-09T20:43:58.659Z,7.95
2022-10-09T20:46:28.035Z,9.30
2022-10-09T20:48:56.176Z,9.93
2022-10-09T20:51:24.359Z,8.40
2022-10-09T20:53:52.851Z,10.80
2022-10-09T20:56:21.683Z,8.15
2022-10-09T20:58:50.945Z,7.47
2022-10-09T21:01:19.101Z,8.63
2022-10-09T21:03:47.194Z,8.55
2022-10-09T21:06:18.476Z,9.15
2022-10-09T21:08:46.512Z,12.23
2022-10-09T21:11:17.151Z,8.90
2022-10-09T21:13:45.813Z,9.90
2022-10-09T21:16:17.387Z,13.18
2022-10-09T21:18:45.165Z,12.13
2022-10-09T21:21:15.350Z,8.88
2022-10-09T21:23:44.176Z,10.70
2022-10-09T21:26:14.076Z,14.20
2022-10-09T21:28:42.301Z,10.88
2022-10-09T21:31:11.161Z,11.25
2022-10-09T21:33:43.632Z,15.15
2022-10-09T21:38:40.154Z,10.38
2022-10-09T21:41:07.934Z,9.85
2022-10-09T21:43:35.676Z,9.98
2022-10-09T21:46:03.522Z,8.77
2022-10-09T21:48:31.762Z,9.65
2022-10-09T21:51:01.022Z,11.50
2022-10-09T21:53:28.727Z,7.60
2022-10-09T21:55:56.470Z,10.52
2022-10-09T21:58:24.529Z,7.32
2022-10-09T22:00:57.015Z,8.95
2022-10-09T22:05:53.155Z,10.60
2022-10-09T22:08:22.803Z,8.75
2022-10-09T22:10:50.645Z,7.85
2022-10-09T22:13:19.761Z,8.77
2022-10-09T22:15:50.909Z,9.65
2022-10-09T22:18:19.264Z,8.00
2022-10-09T22:20:50.700Z,10.32
2022-10-09T22:23:20.598Z,8.15
2022-10-09T22:25:58.794Z,8.98
2022-10-09T22:28:26.720Z,8.75
2022-10-09T22:31:06.174Z,9.32
2022-10-09T22:33:34.793Z,7.53
2022-10-09T22:36:07.918Z,9.02
2022-10-09T22:38:36.229Z,7.63
2022-10-09T22:41:08.670Z,8.00
2022-10-09T22:43:37.102Z,8.18
2022-10-09T22:46:12.214Z,7.85
2022-10-09T22:48:40.624Z,8.23
2022-10-09T22:51:10.739Z,6.38
2022-10-09T22:53:41.580Z,8.48
2022-10-09T22:56:14.210Z,7.45
2022-10-09T22:58:42.057Z,8.60
2022-10-09T23:01:13.040Z,6.70
2022-10-09T23:03:41.186Z,8.75
2022-10-09T23:06:11.138Z,7.25
2022-10-09T23:08:39.844Z,8.65
2022-10-09T23:11:07.836Z,5.78
2022-10-09T23:13:37.118Z,6.13
2022-10-09T23:16:06.709Z,8.30
2022-10-09T23:18:36.763Z,7.70
2022-10-09T23:21:05.388Z,7.85
2022-10-09T23:23:34.157Z,5.75
2022-10-09T23:26:05.193Z,7.07
2022-10-09T23:28:34.266Z,7.55
2022-10-09T23:31:04.771Z,6.78
2022-10-09T23:33:33.157Z,7.15
2022-10-09T23:36:03.143Z,6.45
2022-10-09T23:38:30.872Z,6.25
2022-10-09T23:40:58.848Z,6.60
2022-10-09T23:43:26.859Z,5.90
2022-10-09T23:45:56.700Z,5.82
2022-10-09T23:48:26.257Z,6.13
2022-10-09T23:50:55.236Z,6.40
2022-10-09T23:53:24.467Z,5.25
2022-10-09T23:55:52.758Z,7.65
2022-10-09T23:58:21.138Z,5.57
